sensor_id;sensor_type;location;lat;lon;timestamp;P1;durP1;ratioP1;P2;durP2;ratioP2
55025;SDS011;40925;45.666;18.994;2024-03-02T00:00:01;30.27;;;17.63;;
55025;SDS011;40925;45.666;18.994;2024-03-02T00:02:39;32.78;;;16.80;;
55025;SDS011;40925;45.666;18.994;2024-03-02T00:05:06;32.25;;;17.88;;
55025;SDS011;40925;45.666;18.994;2024-03-02T00:07:32;35.63;;;18.77;;
55025;SDS011;40925;45.666;18.994;2024-03-02T00:09:58;33.53;;;18.67;;
55025;SDS011;40925;45.666;18.994;2024-03-02T00:12:24;36.95;;;19.48;;
55025;SDS011;40925;45.666;18.994;2024-03-02T00:14:51;33.60;;;18.38;;
55025;SDS011;40925;45.666;18.994;2024-03-02T00:17:24;36.60;;;18.88;;
55025;SDS011;40925;45.666;18.994;2024-03-02T00:19:51;35.53;;;18.52;;
55025;SDS011;40925;45.666;18.994;2024-03-02T00:22:17;33.20;;;18.50;;
55025;SDS011;40925;45.666;18.994;2024-03-02T00:24:50;35.88;;;19.00;;
55025;SDS011;40925;45.666;18.994;2024-03-02T00:27:15;36.95;;;19.60;;
55025;SDS011;40925;45.666;18.994;2024-03-02T00:29:44;33.70;;;18.42;;
55025;SDS011;40925;45.666;18.994;2024-03-02T00:32:13;37.85;;;19.85;;
55025;SDS011;40925;45.666;18.994;2024-03-02T00:34:41;33.72;;;18.67;;
55025;SDS011;40925;45.666;18.994;2024-03-02T00:37:06;39.08;;;19.90;;
55025;SDS011;40925;45.666;18.994;2024-03-02T00:39:33;38.50;;;20.38;;
55025;SDS011;40925;45.666;18.994;2024-03-02T00:41:59;38.67;;;19.58;;
55025;SDS011;40925;45.666;18.994;2024-03-02T00:44:25;38.65;;;18.58;;
55025;SDS011;40925;45.666;18.994;2024-03-02T00:46:51;35.80;;;19.25;;
55025;SDS011;40925;45.666;18.994;2024-03-02T00:49:21;36.25;;;19.83;;
55025;SDS011;40925;45.666;18.994;2024-03-02T00:51:48;41.65;;;20.27;;
55025;SDS011;40925;45.666;18.994;2024-03-02T00:54:15;40.38;;;20.55;;
55025;SDS011;40925;45.666;18.994;2024-03-02T00:56:49;38.63;;;20.00;;
55025;SDS011;40925;45.666;18.994;2024-03-02T00:59:15;38.20;;;20.17;;
55025;SDS011;40925;45.666;18.994;2024-03-02T01:01:41;38.60;;;20.30;;
55025;SDS011;40925;45.666;18.994;2024-03-02T01:04:07;41.72;;;20.38;;
55025;SDS011;40925;45.666;18.994;2024-03-02T01:06:34;43.30;;;21.60;;
55025;SDS011;40925;45.666;18.994;2024-03-02T01:09:00;40.13;;;21.08;;
55025;SDS011;40925;45.666;18.994;2024-03-02T01:11:27;41.53;;;21.23;;
55025;SDS011;40925;45.666;18.994;2024-03-02T01:13:53;40.15;;;20.48;;
55025;SDS011;40925;45.666;18.994;2024-03-02T01:16:18;38.53;;;20.00;;
55025;SDS011;40925;45.666;18.994;2024-03-02T01:18:44;41.13;;;20.88;;
55025;SDS011;40925;45.666;18.994;2024-03-02T01:21:10;40.55;;;20.20;;
55025;SDS011;40925;45.666;18.994;2024-03-02T01:23:36;38.38;;;20.38;;
55025;SDS011;40925;45.666;18.994;2024-03-02T01:26:02;40.67;;;19.63;;
55025;SDS011;40925;45.666;18.994;2024-03-02T01:28:28;35.53;;;19.13;;
55025;SDS011;40925;45.666;18.994;2024-03-02T01:30:54;37.78;;;21.15;;
55025;SDS011;40925;45.666;18.994;2024-03-02T01:33:20;39.50;;;20.15;;
55025;SDS011;40925;45.666;18.994;2024-03-02T01:35:46;41.85;;;21.38;;
55025;SDS011;40925;45.666;18.994;2024-03-02T01:38:12;38.08;;;19.92;;
55025;SDS011;40925;45.666;18.994;2024-03-02T01:40:38;39.90;;;19.73;;
55025;SDS011;40925;45.666;18.994;2024-03-02T01:43:04;36.42;;;18.95;;
55025;SDS011;40925;45.666;18.994;2024-03-02T01:45:31;40.70;;;20.50;;
55025;SDS011;40925;45.666;18.994;2024-03-02T01:47:57;36.95;;;18.55;;
55025;SDS011;40925;45.666;18.994;2024-03-02T01:50:31;35.78;;;19.55;;
55025;SDS011;40925;45.666;18.994;2024-03-02T01:52:58;36.75;;;19.85;;
55025;SDS011;40925;45.666;18.994;2024-03-02T01:55:24;38.67;;;19.83;;
55025;SDS011;40925;45.666;18.994;2024-03-02T01:57:51;40.83;;;20.27;;
55025;SDS011;40925;45.666;18.994;2024-03-02T02:00:20;38.78;;;20.13;;
55025;SDS011;40925;45.666;18.994;2024-03-02T02:02:50;37.55;;;20.02;;
55025;SDS011;40925;45.666;18.994;2024-03-02T02:05:16;39.83;;;20.42;;
55025;SDS011;40925;45.666;18.994;2024-03-02T02:07:42;39.60;;;20.88;;
55025;SDS011;40925;45.666;18.994;2024-03-02T02:10:09;39.60;;;20.48;;
55025;SDS011;40925;45.666;18.994;2024-03-02T02:12:36;38.88;;;20.15;;
55025;SDS011;40925;45.666;18.994;2024-03-02T02:15:02;36.60;;;18.90;;
55025;SDS011;40925;45.666;18.994;2024-03-02T02:17:28;37.25;;;18.73;;
55025;SDS011;40925;45.666;18.994;2024-03-02T02:19:54;38.10;;;19.58;;
55025;SDS011;40925;45.666;18.994;2024-03-02T02:22:20;36.95;;;19.73;;
55025;SDS011;40925;45.666;18.994;2024-03-02T02:24:45;36.47;;;19.05;;
55025;SDS011;40925;45.666;18.994;2024-03-02T02:27:11;37.72;;;19.83;;
55025;SDS011;40925;45.666;18.994;2024-03-02T02:29:40;39.08;;;20.15;;
55025;SDS011;40925;45.666;18.994;2024-03-02T02:32:06;34.90;;;17.42;;
55025;SDS011;40925;45.666;18.994;2024-03-02T02:34:32;38.33;;;20.15;;
55025;SDS011;40925;45.666;18.994;2024-03-02T02:36:58;38.13;;;20.50;;
55025;SDS011;40925;45.666;18.994;2024-03-02T02:39:24;38.35;;;19.70;;
55025;SDS011;40925;45.666;18.994;2024-03-02T02:41:50;52.50;;;24.80;;
55025;SDS011;40925;45.666;18.994;2024-03-02T02:44:15;41.10;;;21.77;;
55025;SDS011;40925;45.666;18.994;2024-03-02T02:46:41;37.90;;;20.42;;
55025;SDS011;40925;45.666;18.994;2024-03-02T02:49:07;36.75;;;20.23;;
55025;SDS011;40925;45.666;18.994;2024-03-02T02:51:33;36.67;;;20.20;;
55025;SDS011;40925;45.666;18.994;2024-03-02T02:53:58;36.53;;;19.40;;
55025;SDS011;40925;45.666;18.994;2024-03-02T02:56:24;35.35;;;19.58;;
55025;SDS011;40925;45.666;18.994;2024-03-02T02:58:50;38.00;;;20.33;;
55025;SDS011;40925;45.666;18.994;2024-03-02T03:01:15;35.53;;;19.15;;
55025;SDS011;40925;45.666;18.994;2024-03-02T03:03:44;35.88;;;19.50;;
55025;SDS011;40925;45.666;18.994;2024-03-02T03:06:10;39.50;;;21.48;;
55025;SDS011;40925;45.666;18.994;2024-03-02T03:08:37;39.88;;;20.30;;
55025;SDS011;40925;45.666;18.994;2024-03-02T03:11:03;34.05;;;19.20;;
55025;SDS011;40925;45.666;18.994;2024-03-02T03:13:29;38.95;;;20.60;;
55025;SDS011;40925;45.666;18.994;2024-03-02T03:15:55;39.00;;;20.48;;
55025;SDS011;40925;45.666;18.994;2024-03-02T03:18:21;92.95;;;41.10;;
55025;SDS011;40925;45.666;18.994;2024-03-02T03:20:47;36.88;;;20.48;;
55025;SDS011;40925;45.666;18.994;2024-03-02T03:23:12;36.38;;;19.85;;
55025;SDS011;40925;45.666;18.994;2024-03-02T03:25:41;37.42;;;20.27;;
55025;SDS011;40925;45.666;18.994;2024-03-02T03:28:07;39.95;;;21.98;;
55025;SDS011;40925;45.666;18.994;2024-03-02T03:30:36;46.15;;;25.67;;
55025;SDS011;40925;45.666;18.994;2024-03-02T03:33:02;43.38;;;22.35;;
55025;SDS011;40925;45.666;18.994;2024-03-02T03:35:27;42.20;;;21.95;;
55025;SDS011;40925;45.666;18.994;2024-03-02T03:37:53;38.03;;;20.92;;
55025;SDS011;40925;45.666;18.994;2024-03-02T03:40:19;37.20;;;20.75;;
55025;SDS011;40925;45.666;18.994;2024-03-02T03:42:45;39.75;;;21.00;;
55025;SDS011;40925;45.666;18.994;2024-03-02T03:45:10;36.20;;;20.35;;
55025;SDS011;40925;45.666;18.994;2024-03-02T03:47:36;41.67;;;19.98;;
55025;SDS011;40925;45.666;18.994;2024-03-02T03:50:02;39.10;;;20.52;;
55025;SDS011;40925;45.666;18.994;2024-03-02T03:52:31;40.72;;;20.65;;
55025;SDS011;40925;45.666;18.994;2024-03-02T03:54:57;36.58;;;19.70;;
55025;SDS011;40925;45.666;18.994;2024-03-02T03:57:23;37.90;;;19.98;;
55025;SDS011;40925;45.666;18.994;2024-03-02T03:59:49;42.55;;;22.95;;
55025;SDS011;40925;45.666;18.994;2024-03-02T04:02:14;46.50;;;23.65;;
55025;SDS011;40925;45.666;18.994;2024-03-02T04:04:40;39.45;;;20.38;;
55025;SDS011;40925;45.666;18.994;2024-03-02T04:07:06;53.65;;;31.10;;
55025;SDS011;40925;45.666;18.994;2024-03-02T04:09:31;49.50;;;26.30;;
55025;SDS011;40925;45.666;18.994;2024-03-02T04:11:57;42.78;;;22.63;;
55025;SDS011;40925;45.666;18.994;2024-03-02T04:14:23;45.50;;;24.00;;
55025;SDS011;40925;45.666;18.994;2024-03-02T04:16:49;38.53;;;21.10;;
55025;SDS011;40925;45.666;18.994;2024-03-02T04:19:14;46.13;;;24.67;;
55025;SDS011;40925;45.666;18.994;2024-03-02T04:21:40;38.05;;;21.13;;
55025;SDS011;40925;45.666;18.994;2024-03-02T04:24:06;38.42;;;20.52;;
55025;SDS011;40925;45.666;18.994;2024-03-02T04:26:31;38.17;;;20.83;;
55025;SDS011;40925;45.666;18.994;2024-03-02T04:28:58;36.03;;;19.02;;
55025;SDS011;40925;45.666;18.994;2024-03-02T04:31:24;33.95;;;19.65;;
55025;SDS011;40925;45.666;18.994;2024-03-02T04:33:49;45.97;;;23.60;;
55025;SDS011;40925;45.666;18.994;2024-03-02T04:36:15;40.65;;;21.90;;
55025;SDS011;40925;45.666;18.994;2024-03-02T04:38:41;41.35;;;21.52;;
55025;SDS011;40925;45.666;18.994;2024-03-02T04:41:07;39.30;;;20.65;;
55025;SDS011;40925;45.666;18.994;2024-03-02T04:43:33;39.10;;;20.92;;
55025;SDS011;40925;45.666;18.994;2024-03-02T04:45:59;39.90;;;21.85;;
55025;SDS011;40925;45.666;18.994;2024-03-02T04:48:25;37.22;;;20.77;;
55025;SDS011;40925;45.666;18.994;2024-03-02T04:50:51;38.25;;;21.33;;
55025;SDS011;40925;45.666;18.994;2024-03-02T04:53:16;38.70;;;21.20;;
55025;SDS011;40925;45.666;18.994;2024-03-02T04:55:42;40.10;;;21.60;;
55025;SDS011;40925;45.666;18.994;2024-03-02T04:58:08;39.03;;;21.92;;
55025;SDS011;40925;45.666;18.994;2024-03-02T05:00:34;40.47;;;22.27;;
55025;SDS011;40925;45.666;18.994;2024-03-02T05:03:00;42.33;;;22.60;;
55025;SDS011;40925;45.666;18.994;2024-03-02T05:05:26;43.58;;;22.58;;
55025;SDS011;40925;45.666;18.994;2024-03-02T05:07:51;39.00;;;21.83;;
55025;SDS011;40925;45.666;18.994;2024-03-02T05:10:17;39.38;;;22.63;;
55025;SDS011;40925;45.666;18.994;2024-03-02T05:12:43;39.25;;;22.33;;
55025;SDS011;40925;45.666;18.994;2024-03-02T05:15:13;46.38;;;23.33;;
55025;SDS011;40925;45.666;18.994;2024-03-02T05:17:39;43.90;;;24.08;;
55025;SDS011;40925;45.666;18.994;2024-03-02T05:20:08;44.08;;;23.90;;
55025;SDS011;40925;45.666;18.994;2024-03-02T05:22:35;41.28;;;23.02;;
55025;SDS011;40925;45.666;18.994;2024-03-02T05:25:01;41.08;;;22.45;;
55025;SDS011;40925;45.666;18.994;2024-03-02T05:27:27;37.45;;;21.80;;
55025;SDS011;40925;45.666;18.994;2024-03-02T05:29:53;42.88;;;21.65;;
55025;SDS011;40925;45.666;18.994;2024-03-02T05:32:19;40.97;;;22.27;;
55025;SDS011;40925;45.666;18.994;2024-03-02T05:34:44;37.75;;;21.30;;
55025;SDS011;40925;45.666;18.994;2024-03-02T05:37:10;40.42;;;21.27;;
55025;SDS011;40925;45.666;18.994;2024-03-02T05:39:36;39.33;;;21.80;;
55025;SDS011;40925;45.666;18.994;2024-03-02T05:42:02;40.83;;;21.92;;
55025;SDS011;40925;45.666;18.994;2024-03-02T05:44:28;47.05;;;26.60;;
55025;SDS011;40925;45.666;18.994;2024-03-02T05:46:54;72.38;;;36.97;;
55025;SDS011;40925;45.666;18.994;2024-03-02T05:49:20;68.43;;;34.10;;
55025;SDS011;40925;45.666;18.994;2024-03-02T05:51:45;71.30;;;35.30;;
55025;SDS011;40925;45.666;18.994;2024-03-02T05:54:11;66.28;;;32.95;;
55025;SDS011;40925;45.666;18.994;2024-03-02T05:56:37;54.55;;;28.65;;
55025;SDS011;40925;45.666;18.994;2024-03-02T05:59:02;49.90;;;26.08;;
55025;SDS011;40925;45.666;18.994;2024-03-02T06:01:44;43.65;;;25.20;;
55025;SDS011;40925;45.666;18.994;2024-03-02T06:04:17;45.40;;;24.92;;
55025;SDS011;40925;45.666;18.994;2024-03-02T06:06:42;42.60;;;22.30;;
55025;SDS011;40925;45.666;18.994;2024-03-02T06:09:09;45.03;;;22.27;;
55025;SDS011;40925;45.666;18.994;2024-03-02T06:11:37;40.00;;;22.45;;
55025;SDS011;40925;45.666;18.994;2024-03-02T06:14:04;41.42;;;22.92;;
55025;SDS011;40925;45.666;18.994;2024-03-02T06:16:31;43.65;;;23.02;;
55025;SDS011;40925;45.666;18.994;2024-03-02T06:18:57;43.35;;;22.95;;
55025;SDS011;40925;45.666;18.994;2024-03-02T06:21:23;44.35;;;24.90;;
55025;SDS011;40925;45.666;18.994;2024-03-02T06:23:49;78.68;;;45.08;;
55025;SDS011;40925;45.666;18.994;2024-03-02T06:26:15;42.50;;;24.10;;
55025;SDS011;40925;45.666;18.994;2024-03-02T06:28:41;45.60;;;23.67;;
55025;SDS011;40925;45.666;18.994;2024-03-02T06:31:08;42.55;;;23.92;;
55025;SDS011;40925;45.666;18.994;2024-03-02T06:33:34;52.72;;;27.17;;
55025;SDS011;40925;45.666;18.994;2024-03-02T06:35:59;50.83;;;26.83;;
55025;SDS011;40925;45.666;18.994;2024-03-02T06:38:25;43.03;;;23.52;;
55025;SDS011;40925;45.666;18.994;2024-03-02T06:40:51;39.70;;;22.13;;
55025;SDS011;40925;45.666;18.994;2024-03-02T06:43:17;39.38;;;21.35;;
55025;SDS011;40925;45.666;18.994;2024-03-02T06:45:42;42.70;;;22.98;;
55025;SDS011;40925;45.666;18.994;2024-03-02T06:48:08;42.95;;;23.38;;
55025;SDS011;40925;45.666;18.994;2024-03-02T06:50:34;51.38;;;25.30;;
55025;SDS011;40925;45.666;18.994;2024-03-02T06:52:59;45.92;;;25.52;;
55025;SDS011;40925;45.666;18.994;2024-03-02T06:55:25;47.58;;;26.83;;
55025;SDS011;40925;45.666;18.994;2024-03-02T06:57:51;48.35;;;27.02;;
55025;SDS011;40925;45.666;18.994;2024-03-02T07:00:17;51.38;;;27.15;;
55025;SDS011;40925;45.666;18.994;2024-03-02T07:02:45;45.42;;;26.17;;
55025;SDS011;40925;45.666;18.994;2024-03-02T07:05:11;47.92;;;25.42;;
55025;SDS011;40925;45.666;18.994;2024-03-02T07:07:37;59.63;;;30.75;;
55025;SDS011;40925;45.666;18.994;2024-03-02T07:10:06;60.53;;;33.50;;
55025;SDS011;40925;45.666;18.994;2024-03-02T07:12:32;60.28;;;34.67;;
55025;SDS011;40925;45.666;18.994;2024-03-02T07:14:58;63.38;;;34.90;;
55025;SDS011;40925;45.666;18.994;2024-03-02T07:17:30;60.08;;;34.70;;
55025;SDS011;40925;45.666;18.994;2024-03-02T07:19:56;55.25;;;31.00;;
55025;SDS011;40925;45.666;18.994;2024-03-02T07:22:22;51.10;;;29.98;;
55025;SDS011;40925;45.666;18.994;2024-03-02T07:24:48;67.78;;;34.53;;
55025;SDS011;40925;45.666;18.994;2024-03-02T07:27:14;61.95;;;33.72;;
55025;SDS011;40925;45.666;18.994;2024-03-02T07:29:41;62.25;;;32.47;;
55025;SDS011;40925;45.666;18.994;2024-03-02T07:32:08;61.28;;;33.35;;
55025;SDS011;40925;45.666;18.994;2024-03-02T07:34:34;47.00;;;25.88;;
55025;SDS011;40925;45.666;18.994;2024-03-02T07:37:03;48.80;;;27.25;;
55025;SDS011;40925;45.666;18.994;2024-03-02T07:39:30;46.97;;;26.40;;
55025;SDS011;40925;45.666;18.994;2024-03-02T07:41:55;49.08;;;28.90;;
55025;SDS011;40925;45.666;18.994;2024-03-02T07:44:21;51.92;;;29.60;;
55025;SDS011;40925;45.666;18.994;2024-03-02T07:46:48;51.00;;;28.55;;
55025;SDS011;40925;45.666;18.994;2024-03-02T07:49:19;48.47;;;26.33;;
55025;SDS011;40925;45.666;18.994;2024-03-02T07:51:48;46.25;;;26.10;;
55025;SDS011;40925;45.666;18.994;2024-03-02T07:54:14;45.58;;;24.75;;
55025;SDS011;40925;45.666;18.994;2024-03-02T07:56:40;53.05;;;27.88;;
55025;SDS011;40925;45.666;18.994;2024-03-02T07:59:05;42.03;;;26.15;;
55025;SDS011;40925;45.666;18.994;2024-03-02T08:01:33;47.83;;;27.23;;
55025;SDS011;40925;45.666;18.994;2024-03-02T08:03:59;48.17;;;27.20;;
55025;SDS011;40925;45.666;18.994;2024-03-02T08:06:26;50.25;;;29.27;;
55025;SDS011;40925;45.666;18.994;2024-03-02T08:09:01;71.25;;;38.42;;
55025;SDS011;40925;45.666;18.994;2024-03-02T08:11:29;62.00;;;33.15;;
55025;SDS011;40925;45.666;18.994;2024-03-02T08:13:56;64.45;;;33.67;;
55025;SDS011;40925;45.666;18.994;2024-03-02T08:16:22;74.97;;;36.88;;
55025;SDS011;40925;45.666;18.994;2024-03-02T08:18:48;38.88;;;22.08;;
55025;SDS011;40925;45.666;18.994;2024-03-02T08:21:15;36.28;;;20.35;;
55025;SDS011;40925;45.666;18.994;2024-03-02T08:23:42;76.82;;;35.85;;
55025;SDS011;40925;45.666;18.994;2024-03-02T08:26:08;30.60;;;19.17;;
55025;SDS011;40925;45.666;18.994;2024-03-02T08:28:34;27.58;;;16.52;;
55025;SDS011;40925;45.666;18.994;2024-03-02T08:31:02;40.63;;;22.90;;
55025;SDS011;40925;45.666;18.994;2024-03-02T08:33:28;69.30;;;37.85;;
55025;SDS011;40925;45.666;18.994;2024-03-02T08:35:54;38.25;;;22.95;;
55025;SDS011;40925;45.666;18.994;2024-03-02T08:38:20;39.33;;;20.80;;
55025;SDS011;40925;45.666;18.994;2024-03-02T08:40:46;41.33;;;22.50;;
55025;SDS011;40925;45.666;18.994;2024-03-02T08:43:12;27.80;;;17.17;;
55025;SDS011;40925;45.666;18.994;2024-03-02T08:45:38;104.90;;;41.72;;
55025;SDS011;40925;45.666;18.994;2024-03-02T08:48:05;137.00;;;56.80;;
55025;SDS011;40925;45.666;18.994;2024-03-02T08:50:33;46.83;;;27.98;;
55025;SDS011;40925;45.666;18.994;2024-03-02T08:52:59;52.10;;;26.25;;
55025;SDS011;40925;45.666;18.994;2024-03-02T08:55:25;60.15;;;30.17;;
55025;SDS011;40925;45.666;18.994;2024-03-02T08:57:50;33.25;;;19.42;;
55025;SDS011;40925;45.666;18.994;2024-03-02T09:00:16;32.13;;;19.45;;
55025;SDS011;40925;45.666;18.994;2024-03-02T09:02:45;34.92;;;21.00;;
55025;SDS011;40925;45.666;18.994;2024-03-02T09:05:11;42.20;;;24.63;;
55025;SDS011;40925;45.666;18.994;2024-03-02T09:07:38;29.98;;;18.60;;
55025;SDS011;40925;45.666;18.994;2024-03-02T09:10:04;54.10;;;32.53;;
55025;SDS011;40925;45.666;18.994;2024-03-02T09:12:34;44.88;;;27.77;;
55025;SDS011;40925;45.666;18.994;2024-03-02T09:15:01;35.60;;;22.20;;
55025;SDS011;40925;45.666;18.994;2024-03-02T09:17:33;131.77;;;79.72;;
55025;SDS011;40925;45.666;18.994;2024-03-02T09:19:59;27.67;;;17.42;;
55025;SDS011;40925;45.666;18.994;2024-03-02T09:22:25;28.17;;;17.15;;
55025;SDS011;40925;45.666;18.994;2024-03-02T09:24:51;29.55;;;17.40;;
55025;SDS011;40925;45.666;18.994;2024-03-02T09:27:17;27.73;;;17.15;;
55025;SDS011;40925;45.666;18.994;2024-03-02T09:29:43;52.22;;;30.60;;
55025;SDS011;40925;45.666;18.994;2024-03-02T09:32:12;34.78;;;21.35;;
55025;SDS011;40925;45.666;18.994;2024-03-02T09:34:39;28.17;;;18.08;;
55025;SDS011;40925;45.666;18.994;2024-03-02T09:37:05;51.65;;;31.48;;
55025;SDS011;40925;45.666;18.994;2024-03-02T09:39:32;26.15;;;16.52;;
55025;SDS011;40925;45.666;18.994;2024-03-02T09:41:58;30.00;;;19.58;;
55025;SDS011;40925;45.666;18.994;2024-03-02T09:44:25;24.42;;;16.15;;
55025;SDS011;40925;45.666;18.994;2024-03-02T09:46:51;31.98;;;20.42;;
55025;SDS011;40925;45.666;18.994;2024-03-02T09:49:18;23.85;;;16.10;;
55025;SDS011;40925;45.666;18.994;2024-03-02T09:51:48;28.50;;;16.40;;
55025;SDS011;40925;45.666;18.994;2024-03-02T09:54:17;25.00;;;16.27;;
55025;SDS011;40925;45.666;18.994;2024-03-02T09:56:46;25.50;;;15.57;;
55025;SDS011;40925;45.666;18.994;2024-03-02T09:59:12;32.10;;;20.38;;
55025;SDS011;40925;45.666;18.994;2024-03-02T10:01:55;23.50;;;15.75;;
55025;SDS011;40925;45.666;18.994;2024-03-02T10:04:21;24.15;;;15.73;;
55025;SDS011;40925;45.666;18.994;2024-03-02T10:06:47;23.67;;;16.23;;
55025;SDS011;40925;45.666;18.994;2024-03-02T10:09:14;25.67;;;14.95;;
55025;SDS011;40925;45.666;18.994;2024-03-02T10:12:12;22.02;;;15.20;;
55025;SDS011;40925;45.666;18.994;2024-03-02T10:14:39;22.45;;;14.60;;
55025;SDS011;40925;45.666;18.994;2024-03-02T10:17:07;24.10;;;16.42;;
55025;SDS011;40925;45.666;18.994;2024-03-02T10:19:33;26.02;;;17.42;;
55025;SDS011;40925;45.666;18.994;2024-03-02T10:22:00;37.25;;;19.70;;
55025;SDS011;40925;45.666;18.994;2024-03-02T10:24:28;30.63;;;18.42;;
55025;SDS011;40925;45.666;18.994;2024-03-02T10:27:09;23.63;;;15.50;;
55025;SDS011;40925;45.666;18.994;2024-03-02T10:29:40;22.00;;;15.77;;
55025;SDS011;40925;45.666;18.994;2024-03-02T10:32:09;22.95;;;15.98;;
55025;SDS011;40925;45.666;18.994;2024-03-02T10:34:36;24.33;;;15.95;;
55025;SDS011;40925;45.666;18.994;2024-03-02T10:37:03;23.25;;;15.85;;
55025;SDS011;40925;45.666;18.994;2024-03-02T10:39:30;24.00;;;16.48;;
55025;SDS011;40925;45.666;18.994;2024-03-02T10:41:56;24.90;;;16.38;;
55025;SDS011;40925;45.666;18.994;2024-03-02T10:44:23;24.13;;;15.27;;
55025;SDS011;40925;45.666;18.994;2024-03-02T10:46:51;24.23;;;16.42;;
55025;SDS011;40925;45.666;18.994;2024-03-02T10:49:19;24.45;;;15.88;;
55025;SDS011;40925;45.666;18.994;2024-03-02T10:51:48;25.85;;;15.93;;
55025;SDS011;40925;45.666;18.994;2024-03-02T10:54:14;20.42;;;13.70;;
55025;SDS011;40925;45.666;18.994;2024-03-02T10:56:40;27.75;;;18.50;;
55025;SDS011;40925;45.666;18.994;2024-03-02T10:59:33;19.27;;;12.30;;
55025;SDS011;40925;45.666;18.994;2024-03-02T11:02:01;17.23;;;12.15;;
55025;SDS011;40925;45.666;18.994;2024-03-02T11:04:30;17.55;;;12.07;;
55025;SDS011;40925;45.666;18.994;2024-03-02T11:07:06;16.60;;;11.13;;
55025;SDS011;40925;45.666;18.994;2024-03-02T11:09:34;16.20;;;10.63;;
55025;SDS011;40925;45.666;18.994;2024-03-02T11:14:53;16.15;;;10.73;;
55025;SDS011;40925;45.666;18.994;2024-03-02T11:17:21;15.90;;;10.38;;
55025;SDS011;40925;45.666;18.994;2024-03-02T11:19:47;20.15;;;13.15;;
55025;SDS011;40925;45.666;18.994;2024-03-02T11:22:16;19.10;;;12.43;;
55025;SDS011;40925;45.666;18.994;2024-03-02T11:24:49;19.98;;;11.85;;
55025;SDS011;40925;45.666;18.994;2024-03-02T11:27:58;17.65;;;11.30;;
55025;SDS011;40925;45.666;18.994;2024-03-02T11:30:55;23.65;;;12.57;;
55025;SDS011;40925;45.666;18.994;2024-03-02T11:32:56;17.90;;;12.05;;
55025;SDS011;40925;45.666;18.994;2024-03-02T11:35:24;21.58;;;11.77;;
55025;SDS011;40925;45.666;18.994;2024-03-02T11:37:51;23.85;;;10.77;;
55025;SDS011;40925;45.666;18.994;2024-03-02T11:40:24;21.45;;;13.48;;
55025;SDS011;40925;45.666;18.994;2024-03-02T11:42:50;22.15;;;14.60;;
55025;SDS011;40925;45.666;18.994;2024-03-02T11:45:16;26.02;;;13.77;;
55025;SDS011;40925;45.666;18.994;2024-03-02T11:47:49;16.95;;;10.75;;
55025;SDS011;40925;45.666;18.994;2024-03-02T11:50:28;14.13;;;10.30;;
55025;SDS011;40925;45.666;18.994;2024-03-02T11:52:57;15.70;;;10.80;;
55025;SDS011;40925;45.666;18.994;2024-03-02T11:55:25;17.40;;;10.30;;
55025;SDS011;40925;45.666;18.994;2024-03-02T11:57:54;16.80;;;10.13;;
55025;SDS011;40925;45.666;18.994;2024-03-02T12:00:20;15.82;;;10.65;;
55025;SDS011;40925;45.666;18.994;2024-03-02T12:02:46;16.75;;;10.63;;
55025;SDS011;40925;45.666;18.994;2024-03-02T12:05:24;16.58;;;11.55;;
55025;SDS011;40925;45.666;18.994;2024-03-02T12:07:55;20.77;;;12.48;;
55025;SDS011;40925;45.666;18.994;2024-03-02T12:10:25;14.68;;;10.25;;
55025;SDS011;40925;45.666;18.994;2024-03-02T12:12:55;19.55;;;11.18;;
55025;SDS011;40925;45.666;18.994;2024-03-02T12:15:25;19.02;;;12.32;;
55025;SDS011;40925;45.666;18.994;2024-03-02T12:17:56;14.15;;;9.80;;
55025;SDS011;40925;45.666;18.994;2024-03-02T12:20:25;15.10;;;9.05;;
55025;SDS011;40925;45.666;18.994;2024-03-02T12:22:54;62.42;;;31.13;;
55025;SDS011;40925;45.666;18.994;2024-03-02T12:25:21;33.00;;;16.88;;
55025;SDS011;40925;45.666;18.994;2024-03-02T12:27:48;14.50;;;9.63;;
55025;SDS011;40925;45.666;18.994;2024-03-02T12:30:18;14.65;;;9.70;;
55025;SDS011;40925;45.666;18.994;2024-03-02T12:32:44;15.15;;;10.00;;
55025;SDS011;40925;45.666;18.994;2024-03-02T12:35:11;21.98;;;11.02;;
55025;SDS011;40925;45.666;18.994;2024-03-02T12:37:46;13.98;;;9.27;;
55025;SDS011;40925;45.666;18.994;2024-03-02T12:40:13;24.00;;;10.02;;
55025;SDS011;40925;45.666;18.994;2024-03-02T12:42:42;19.85;;;9.73;;
55025;SDS011;40925;45.666;18.994;2024-03-02T12:45:09;17.27;;;9.68;;
55025;SDS011;40925;45.666;18.994;2024-03-02T12:47:35;13.80;;;8.95;;
55025;SDS011;40925;45.666;18.994;2024-03-02T12:50:01;13.57;;;8.48;;
55025;SDS011;40925;45.666;18.994;2024-03-02T12:52:28;15.40;;;8.48;;
55025;SDS011;40925;45.666;18.994;2024-03-02T12:54:54;14.98;;;8.38;;
55025;SDS011;40925;45.666;18.994;2024-03-02T12:57:25;13.65;;;8.93;;
55025;SDS011;40925;45.666;18.994;2024-03-02T13:00:04;20.73;;;11.63;;
55025;SDS011;40925;45.666;18.994;2024-03-02T13:02:39;14.20;;;8.48;;
55025;SDS011;40925;45.666;18.994;2024-03-02T13:05:06;12.57;;;7.90;;
55025;SDS011;40925;45.666;18.994;2024-03-02T13:07:39;15.75;;;10.20;;
55025;SDS011;40925;45.666;18.994;2024-03-02T13:10:06;12.20;;;7.97;;
55025;SDS011;40925;45.666;18.994;2024-03-02T13:12:35;12.82;;;8.50;;
55025;SDS011;40925;45.666;18.994;2024-03-02T13:15:02;11.52;;;7.57;;
55025;SDS011;40925;45.666;18.994;2024-03-02T13:17:28;11.75;;;6.82;;
55025;SDS011;40925;45.666;18.994;2024-03-02T13:19:55;10.02;;;6.90;;
55025;SDS011;40925;45.666;18.994;2024-03-02T13:22:25;9.90;;;6.43;;
55025;SDS011;40925;45.666;18.994;2024-03-02T13:24:51;9.00;;;6.50;;
55025;SDS011;40925;45.666;18.994;2024-03-02T13:27:20;10.65;;;6.57;;
55025;SDS011;40925;45.666;18.994;2024-03-02T13:29:47;11.90;;;7.40;;
55025;SDS011;40925;45.666;18.994;2024-03-02T13:32:13;10.23;;;6.85;;
55025;SDS011;40925;45.666;18.994;2024-03-02T13:34:40;9.88;;;6.95;;
55025;SDS011;40925;45.666;18.994;2024-03-02T13:37:06;12.63;;;7.68;;
55025;SDS011;40925;45.666;18.994;2024-03-02T13:39:31;10.80;;;7.90;;
55025;SDS011;40925;45.666;18.994;2024-03-02T13:42:00;8.07;;;6.53;;
55025;SDS011;40925;45.666;18.994;2024-03-02T13:44:30;11.07;;;6.38;;
55025;SDS011;40925;45.666;18.994;2024-03-02T13:46:56;12.13;;;6.05;;
55025;SDS011;40925;45.666;18.994;2024-03-02T13:49:24;9.85;;;6.65;;
55025;SDS011;40925;45.666;18.994;2024-03-02T13:51:49;11.75;;;6.95;;
55025;SDS011;40925;45.666;18.994;2024-03-02T13:54:15;12.50;;;7.15;;
55025;SDS011;40925;45.666;18.994;2024-03-02T13:56:41;11.93;;;7.90;;
55025;SDS011;40925;45.666;18.994;2024-03-02T13:59:07;10.73;;;7.10;;
55025;SDS011;40925;45.666;18.994;2024-03-02T14:01:33;12.27;;;7.43;;
55025;SDS011;40925;45.666;18.994;2024-03-02T14:03:59;31.13;;;8.57;;
55025;SDS011;40925;45.666;18.994;2024-03-02T14:06:24;9.32;;;6.40;;
55025;SDS011;40925;45.666;18.994;2024-03-02T14:08:53;9.52;;;6.63;;
55025;SDS011;40925;45.666;18.994;2024-03-02T14:11:18;9.73;;;6.60;;
55025;SDS011;40925;45.666;18.994;2024-03-02T14:13:44;12.82;;;7.40;;